sensor_id;sensor_type;location;lat;lon;timestamp;P1;durP1;ratioP1;P2;durP2;ratioP2
73113;SDS011;61301;51.956;5.876;2023-08-06T00:00:27;6.28;;;3.78;;
73113;SDS011;61301;51.956;5.876;2023-08-06T00:02:53;2.97;;;2.42;;
73113;SDS011;61301;51.956;5.876;2023-08-06T00:05:19;2.55;;;2.05;;
73113;SDS011;61301;51.956;5.876;2023-08-06T00:07:47;3.55;;;2.83;;
73113;SDS011;61301;51.956;5.876;2023-08-06T00:10:13;4.10;;;3.20;;
73113;SDS011;61301;51.956;5.876;2023-08-06T00:12:39;5.25;;;3.45;;
73113;SDS011;61301;51.956;5.876;2023-08-06T00:15:06;5.07;;;3.55;;
73113;SDS011;61301;51.956;5.876;2023-08-06T00:17:35;5.00;;;3.17;;
73113;SDS011;61301;51.956;5.876;2023-08-06T00:20:01;3.45;;;2.47;;
73113;SDS011;61301;51.956;5.876;2023-08-06T00:22:35;3.45;;;2.20;;
73113;SDS011;61301;51.956;5.876;2023-08-06T00:25:02;5.68;;;3.58;;
73113;SDS011;61301;51.956;5.876;2023-08-06T00:27:29;2.85;;;2.55;;
73113;SDS011;61301;51.956;5.876;2023-08-06T00:29:55;2.80;;;2.40;;
73113;SDS011;61301;51.956;5.876;2023-08-06T00:32:21;2.47;;;1.80;;
73113;SDS011;61301;51.956;5.876;2023-08-06T00:34:48;2.42;;;1.75;;
73113;SDS011;61301;51.956;5.876;2023-08-06T00:37:15;4.70;;;3.72;;
73113;SDS011;61301;51.956;5.876;2023-08-06T00:39:42;5.43;;;4.20;;
73113;SDS011;61301;51.956;5.876;2023-08-06T00:42:09;5.45;;;4.88;;
73113;SDS011;61301;51.956;5.876;2023-08-06T00:44:36;6.00;;;4.30;;
73113;SDS011;61301;51.956;5.876;2023-08-06T00:47:06;5.20;;;4.70;;
73113;SDS011;61301;51.956;5.876;2023-08-06T00:49:34;9.05;;;4.55;;
73113;SDS011;61301;51.956;5.876;2023-08-06T00:52:01;5.65;;;4.63;;
73113;SDS011;61301;51.956;5.876;2023-08-06T00:54:29;5.00;;;4.50;;
73113;SDS011;61301;51.956;5.876;2023-08-06T00:56:56;7.78;;;5.22;;
73113;SDS011;61301;51.956;5.876;2023-08-06T00:59:24;6.75;;;5.70;;
73113;SDS011;61301;51.956;5.876;2023-08-06T01:01:51;7.07;;;5.80;;
73113;SDS011;61301;51.956;5.876;2023-08-06T01:04:17;6.22;;;5.63;;
73113;SDS011;61301;51.956;5.876;2023-08-06T01:07:06;5.45;;;4.53;;
73113;SDS011;61301;51.956;5.876;2023-08-06T01:12:32;7.65;;;5.50;;
73113;SDS011;61301;51.956;5.876;2023-08-06T01:15:16;5.82;;;5.13;;
73113;SDS011;61301;51.956;5.876;2023-08-06T01:17:46;5.53;;;4.93;;
73113;SDS011;61301;51.956;5.876;2023-08-06T01:20:12;5.47;;;4.20;;
73113;SDS011;61301;51.956;5.876;2023-08-06T01:22:38;4.50;;;3.20;;
73113;SDS011;61301;51.956;5.876;2023-08-06T01:25:05;8.95;;;4.25;;
73113;SDS011;61301;51.956;5.876;2023-08-06T01:30:12;5.85;;;4.30;;
73113;SDS011;61301;51.956;5.876;2023-08-06T01:32:44;5.00;;;4.05;;
73113;SDS011;61301;51.956;5.876;2023-08-06T01:35:12;4.63;;;4.22;;
73113;SDS011;61301;51.956;5.876;2023-08-06T01:37:40;4.95;;;3.55;;
73113;SDS011;61301;51.956;5.876;2023-08-06T01:40:09;4.45;;;3.53;;
73113;SDS011;61301;51.956;5.876;2023-08-06T01:42:37;5.47;;;4.28;;
73113;SDS011;61301;51.956;5.876;2023-08-06T01:45:09;6.47;;;4.88;;
73113;SDS011;61301;51.956;5.876;2023-08-06T01:47:36;5.78;;;4.13;;
73113;SDS011;61301;51.956;5.876;2023-08-06T01:50:02;4.72;;;4.25;;
73113;SDS011;61301;51.956;5.876;2023-08-06T01:52:28;7.82;;;5.05;;
73113;SDS011;61301;51.956;5.876;2023-08-06T01:54:54;8.75;;;6.20;;
73113;SDS011;61301;51.956;5.876;2023-08-06T01:57:21;7.18;;;6.13;;
73113;SDS011;61301;51.956;5.876;2023-08-06T01:59:47;6.30;;;5.40;;
73113;SDS011;61301;51.956;5.876;2023-08-06T02:02:13;6.85;;;6.15;;
73113;SDS011;61301;51.956;5.876;2023-08-06T02:04:40;7.13;;;6.43;;
73113;SDS011;61301;51.956;5.876;2023-08-06T02:07:06;7.72;;;6.20;;
73113;SDS011;61301;51.956;5.876;2023-08-06T02:09:32;6.47;;;5.20;;
73113;SDS011;61301;51.956;5.876;2023-08-06T02:11:58;5.47;;;4.53;;
73113;SDS011;61301;51.956;5.876;2023-08-06T02:14:24;5.55;;;4.95;;
73113;SDS011;61301;51.956;5.876;2023-08-06T02:16:50;8.05;;;6.20;;
73113;SDS011;61301;51.956;5.876;2023-08-06T02:19:16;6.93;;;6.10;;
73113;SDS011;61301;51.956;5.876;2023-08-06T02:21:42;9.77;;;6.30;;
73113;SDS011;61301;51.956;5.876;2023-08-06T02:24:08;6.40;;;5.80;;
73113;SDS011;61301;51.956;5.876;2023-08-06T02:26:34;7.43;;;5.82;;
73113;SDS011;61301;51.956;5.876;2023-08-06T02:29:00;6.60;;;5.90;;
73113;SDS011;61301;51.956;5.876;2023-08-06T02:31:26;6.70;;;5.72;;
73113;SDS011;61301;51.956;5.876;2023-08-06T02:33:51;8.65;;;6.50;;
73113;SDS011;61301;51.956;5.876;2023-08-06T02:36:19;8.15;;;6.13;;
73113;SDS011;61301;51.956;5.876;2023-08-06T02:38:51;8.73;;;5.90;;
73113;SDS011;61301;51.956;5.876;2023-08-06T02:41:17;9.45;;;6.47;;
73113;SDS011;61301;51.956;5.876;2023-08-06T02:43:43;6.28;;;5.60;;
73113;SDS011;61301;51.956;5.876;2023-08-06T02:46:09;7.60;;;5.53;;
73113;SDS011;61301;51.956;5.876;2023-08-06T02:48:35;9.20;;;7.28;;
73113;SDS011;61301;51.956;5.876;2023-08-06T02:51:01;6.47;;;5.10;;
73113;SDS011;61301;51.956;5.876;2023-08-06T02:53:30;5.15;;;3.72;;
73113;SDS011;61301;51.956;5.876;2023-08-06T02:56:02;2.60;;;2.10;;
73113;SDS011;61301;51.956;5.876;2023-08-06T02:58:38;9.30;;;4.97;;
73113;SDS011;61301;51.956;5.876;2023-08-06T03:01:17;4.78;;;4.28;;
73113;SDS011;61301;51.956;5.876;2023-08-06T03:03:53;4.80;;;3.50;;
73113;SDS011;61301;51.956;5.876;2023-08-06T03:06:26;6.60;;;5.75;;
73113;SDS011;61301;51.956;5.876;2023-08-06T03:08:54;4.70;;;4.20;;
73113;SDS011;61301;51.956;5.876;2023-08-06T03:11:20;5.70;;;5.03;;
73113;SDS011;61301;51.956;5.876;2023-08-06T03:13:48;4.18;;;3.42;;
73113;SDS011;61301;51.956;5.876;2023-08-06T03:16:15;4.75;;;3.95;;
73113;SDS011;61301;51.956;5.876;2023-08-06T03:18:41;4.05;;;3.33;;
73113;SDS011;61301;51.956;5.876;2023-08-06T03:21:09;5.30;;;4.07;;
73113;SDS011;61301;51.956;5.876;2023-08-06T03:23:35;4.25;;;3.85;;
73113;SDS011;61301;51.956;5.876;2023-08-06T03:26:02;4.15;;;3.75;;
73113;SDS011;61301;51.956;5.876;2023-08-06T03:28:29;4.47;;;3.40;;
73113;SDS011;61301;51.956;5.876;2023-08-06T03:30:59;3.58;;;3.28;;
73113;SDS011;61301;51.956;5.876;2023-08-06T03:33:35;4.85;;;4.32;;
73113;SDS011;61301;51.956;5.876;2023-08-06T03:36:03;6.95;;;5.90;;
73113;SDS011;61301;51.956;5.876;2023-08-06T03:38:32;6.15;;;5.55;;
73113;SDS011;61301;51.956;5.876;2023-08-06T03:40:59;7.70;;;5.20;;
73113;SDS011;61301;51.956;5.876;2023-08-06T03:43:25;5.60;;;4.70;;
73113;SDS011;61301;51.956;5.876;2023-08-06T03:45:51;5.15;;;4.65;;
73113;SDS011;61301;51.956;5.876;2023-08-06T03:48:18;4.78;;;4.05;;
73113;SDS011;61301;51.956;5.876;2023-08-06T03:50:44;4.80;;;3.95;;
73113;SDS011;61301;51.956;5.876;2023-08-06T03:53:13;4.72;;;4.22;;
73113;SDS011;61301;51.956;5.876;2023-08-06T03:55:39;4.35;;;3.38;;
73113;SDS011;61301;51.956;5.876;2023-08-06T03:58:08;4.45;;;4.05;;
73113;SDS011;61301;51.956;5.876;2023-08-06T04:00:34;4.13;;;3.35;;
73113;SDS011;61301;51.956;5.876;2023-08-06T04:03:01;3.42;;;2.60;;
73113;SDS011;61301;51.956;5.876;2023-08-06T04:05:30;2.13;;;1.95;;
73113;SDS011;61301;51.956;5.876;2023-08-06T04:07:58;3.40;;;3.05;;
73113;SDS011;61301;51.956;5.876;2023-08-06T04:10:25;4.65;;;4.15;;
73113;SDS011;61301;51.956;5.876;2023-08-06T04:12:54;4.85;;;3.90;;
73113;SDS011;61301;51.956;5.876;2023-08-06T04:15:23;4.70;;;3.90;;
73113;SDS011;61301;51.956;5.876;2023-08-06T04:17:49;4.13;;;3.75;;
73113;SDS011;61301;51.956;5.876;2023-08-06T04:20:15;5.50;;;3.72;;
73113;SDS011;61301;51.956;5.876;2023-08-06T04:22:41;3.00;;;2.70;;
73113;SDS011;61301;51.956;5.876;2023-08-06T04:25:07;4.28;;;3.45;;
73113;SDS011;61301;51.956;5.876;2023-08-06T04:27:34;3.05;;;2.60;;
73113;SDS011;61301;51.956;5.876;2023-08-06T04:30:00;4.50;;;3.40;;
73113;SDS011;61301;51.956;5.876;2023-08-06T04:32:26;2.20;;;1.95;;
73113;SDS011;61301;51.956;5.876;2023-08-06T04:34:55;1.80;;;1.70;;
73113;SDS011;61301;51.956;5.876;2023-08-06T04:37:21;3.88;;;2.78;;
73113;SDS011;61301;51.956;5.876;2023-08-06T04:39:51;2.00;;;1.70;;
73113;SDS011;61301;51.956;5.876;2023-08-06T04:42:23;2.10;;;1.90;;
73113;SDS011;61301;51.956;5.876;2023-08-06T04:44:49;2.70;;;2.08;;
73113;SDS011;61301;51.956;5.876;2023-08-06T04:47:15;4.72;;;3.65;;
73113;SDS011;61301;51.956;5.876;2023-08-06T04:49:41;3.45;;;3.13;;
73113;SDS011;61301;51.956;5.876;2023-08-06T04:52:11;3.13;;;2.42;;
73113;SDS011;61301;51.956;5.876;2023-08-06T04:54:37;2.83;;;2.53;;
73113;SDS011;61301;51.956;5.876;2023-08-06T04:57:03;3.38;;;2.78;;
73113;SDS011;61301;51.956;5.876;2023-08-06T04:59:32;3.05;;;2.65;;
73113;SDS011;61301;51.956;5.876;2023-08-06T05:01:58;3.10;;;2.80;;
73113;SDS011;61301;51.956;5.876;2023-08-06T05:04:24;5.78;;;3.90;;
73113;SDS011;61301;51.956;5.876;2023-08-06T05:06:50;4.25;;;3.10;;
73113;SDS011;61301;51.956;5.876;2023-08-06T05:09:16;2.60;;;2.40;;
73113;SDS011;61301;51.956;5.876;2023-08-06T05:11:42;3.13;;;2.22;;
73113;SDS011;61301;51.956;5.876;2023-08-06T05:14:08;3.25;;;2.15;;
73113;SDS011;61301;51.956;5.876;2023-08-06T05:16:33;3.55;;;2.72;;
73113;SDS011;61301;51.956;5.876;2023-08-06T05:18:59;3.40;;;2.72;;
73113;SDS011;61301;51.956;5.876;2023-08-06T05:21:25;2.65;;;1.80;;
73113;SDS011;61301;51.956;5.876;2023-08-06T05:23:51;2.15;;;1.60;;
73113;SDS011;61301;51.956;5.876;2023-08-06T05:26:20;4.03;;;3.63;;
73113;SDS011;61301;51.956;5.876;2023-08-06T05:28:46;3.55;;;3.13;;
73113;SDS011;61301;51.956;5.876;2023-08-06T05:31:12;2.80;;;2.55;;
73113;SDS011;61301;51.956;5.876;2023-08-06T05:33:38;2.38;;;2.17;;
73113;SDS011;61301;51.956;5.876;2023-08-06T05:36:04;4.68;;;3.88;;
73113;SDS011;61301;51.956;5.876;2023-08-06T05:38:30;4.22;;;3.83;;
73113;SDS011;61301;51.956;5.876;2023-08-06T05:40:56;3.72;;;3.40;;
73113;SDS011;61301;51.956;5.876;2023-08-06T05:43:22;5.53;;;4.72;;
73113;SDS011;61301;51.956;5.876;2023-08-06T05:45:51;4.88;;;4.22;;
73113;SDS011;61301;51.956;5.876;2023-08-06T05:48:17;6.03;;;5.43;;
73113;SDS011;61301;51.956;5.876;2023-08-06T05:50:43;8.63;;;5.28;;
73113;SDS011;61301;51.956;5.876;2023-08-06T05:53:09;6.65;;;6.05;;
73113;SDS011;61301;51.956;5.876;2023-08-06T05:55:35;8.02;;;7.22;;
73113;SDS011;61301;51.956;5.876;2023-08-06T05:58:01;5.47;;;4.90;;
73113;SDS011;61301;51.956;5.876;2023-08-06T06:00:27;3.90;;;3.50;;
73113;SDS011;61301;51.956;5.876;2023-08-06T06:02:53;3.38;;;3.08;;
73113;SDS011;61301;51.956;5.876;2023-08-06T06:05:19;5.00;;;4.50;;
73113;SDS011;61301;51.956;5.876;2023-08-06T06:07:45;3.60;;;3.30;;
73113;SDS011;61301;51.956;5.876;2023-08-06T06:10:11;4.72;;;4.30;;
73113;SDS011;61301;51.956;5.876;2023-08-06T06:12:38;5.53;;;4.70;;
73113;SDS011;61301;51.956;5.876;2023-08-06T06:15:04;5.53;;;5.03;;
73113;SDS011;61301;51.956;5.876;2023-08-06T06:17:31;5.43;;;4.93;;
73113;SDS011;61301;51.956;5.876;2023-08-06T06:19:57;3.83;;;3.40;;
73113;SDS011;61301;51.956;5.876;2023-08-06T06:22:23;2.65;;;2.45;;
73113;SDS011;61301;51.956;5.876;2023-08-06T06:24:49;3.55;;;3.25;;
73113;SDS011;61301;51.956;5.876;2023-08-06T06:27:14;3.50;;;3.20;;
73113;SDS011;61301;51.956;5.876;2023-08-06T06:29:40;3.50;;;3.20;;
73113;SDS011;61301;51.956;5.876;2023-08-06T06:32:06;2.97;;;2.72;;
73113;SDS011;61301;51.956;5.876;2023-08-06T06:34:33;4.57;;;4.18;;
73113;SDS011;61301;51.956;5.876;2023-08-06T06:36:59;5.10;;;4.60;;
73113;SDS011;61301;51.956;5.876;2023-08-06T06:39:25;4.95;;;4.55;;
73113;SDS011;61301;51.956;5.876;2023-08-06T06:41:50;5.07;;;4.57;;
73113;SDS011;61301;51.956;5.876;2023-08-06T06:44:24;5.20;;;4.70;;
73113;SDS011;61301;51.956;5.876;2023-08-06T06:46:50;6.25;;;4.43;;
73113;SDS011;61301;51.956;5.876;2023-08-06T06:49:16;4.57;;;4.18;;
73113;SDS011;61301;51.956;5.876;2023-08-06T06:51:42;5.50;;;5.00;;
73113;SDS011;61301;51.956;5.876;2023-08-06T06:54:08;4.70;;;4.30;;
73113;SDS011;61301;51.956;5.876;2023-08-06T06:56:34;5.60;;;4.95;;
73113;SDS011;61301;51.956;5.876;2023-08-06T06:59:00;5.70;;;5.20;;
73113;SDS011;61301;51.956;5.876;2023-08-06T07:01:26;4.72;;;4.28;;
73113;SDS011;61301;51.956;5.876;2023-08-06T07:03:52;7.82;;;7.13;;
73113;SDS011;61301;51.956;5.876;2023-08-06T07:06:18;7.95;;;7.15;;
73113;SDS011;61301;51.956;5.876;2023-08-06T07:08:50;5.65;;;4.75;;
73113;SDS011;61301;51.956;5.876;2023-08-06T07:11:16;6.70;;;5.18;;
73113;SDS011;61301;51.956;5.876;2023-08-06T07:13:42;8.15;;;6.25;;
73113;SDS011;61301;51.956;5.876;2023-08-06T07:16:08;6.07;;;5.47;;
73113;SDS011;61301;51.956;5.876;2023-08-06T07:18:34;5.10;;;4.63;;
73113;SDS011;61301;51.956;5.876;2023-08-06T07:21:00;4.88;;;4.40;;
73113;SDS011;61301;51.956;5.876;2023-08-06T07:23:26;4.07;;;3.67;;
73113;SDS011;61301;51.956;5.876;2023-08-06T07:25:52;4.07;;;3.67;;
73113;SDS011;61301;51.956;5.876;2023-08-06T07:28:18;3.60;;;3.30;;
73113;SDS011;61301;51.956;5.876;2023-08-06T07:30:44;5.38;;;4.65;;
73113;SDS011;61301;51.956;5.876;2023-08-06T07:33:11;8.02;;;7.22;;
73113;SDS011;61301;51.956;5.876;2023-08-06T07:35:37;8.00;;;7.20;;
73113;SDS011;61301;51.956;5.876;2023-08-06T07:38:04;6.70;;;6.10;;
73113;SDS011;61301;51.956;5.876;2023-08-06T07:40:30;5.20;;;4.70;;
73113;SDS011;61301;51.956;5.876;2023-08-06T07:42:56;5.43;;;4.93;;
73113;SDS011;61301;51.956;5.876;2023-08-06T07:45:22;4.68;;;4.28;;
73113;SDS011;61301;51.956;5.876;2023-08-06T07:47:47;5.82;;;5.32;;
73113;SDS011;61301;51.956;5.876;2023-08-06T07:50:19;5.00;;;4.57;;
73113;SDS011;61301;51.956;5.876;2023-08-06T07:52:45;4.95;;;4.55;;
73113;SDS011;61301;51.956;5.876;2023-08-06T07:55:11;5.80;;;5.30;;
73113;SDS011;61301;51.956;5.876;2023-08-06T07:57:37;4.95;;;4.32;;
73113;SDS011;61301;51.956;5.876;2023-08-06T08:00:04;5.40;;;4.90;;
73113;SDS011;61301;51.956;5.876;2023-08-06T08:02:38;4.15;;;3.75;;
73113;SDS011;61301;51.956;5.876;2023-08-06T08:05:04;3.40;;;3.10;;
73113;SDS011;61301;51.956;5.876;2023-08-06T08:07:32;4.30;;;3.90;;
73113;SDS011;61301;51.956;5.876;2023-08-06T08:09:58;3.60;;;3.30;;
73113;SDS011;61301;51.956;5.876;2023-08-06T08:12:24;4.10;;;3.67;;
73113;SDS011;61301;51.956;5.876;2023-08-06T08:14:50;4.30;;;3.90;;
73113;SDS011;61301;51.956;5.876;2023-08-06T08:17:22;4.20;;;3.78;;
73113;SDS011;61301;51.956;5.876;2023-08-06T08:19:48;6.10;;;4.60;;
73113;SDS011;61301;51.956;5.876;2023-08-06T08:22:14;5.82;;;5.22;;
73113;SDS011;61301;51.956;5.876;2023-08-06T08:24:40;5.72;;;5.13;;
73113;SDS011;61301;51.956;5.876;2023-08-06T08:27:06;4.93;;;4.22;;
73113;SDS011;61301;51.956;5.876;2023-08-06T08:29:32;4.22;;;3.83;;
73113;SDS011;61301;51.956;5.876;2023-08-06T08:31:58;4.55;;;4.15;;
73113;SDS011;61301;51.956;5.876;2023-08-06T08:34:27;4.35;;;3.85;;
73113;SDS011;61301;51.956;5.876;2023-08-06T08:36:53;4.40;;;4.00;;
73113;SDS011;61301;51.956;5.876;2023-08-06T08:39:19;4.70;;;4.30;;
73113;SDS011;61301;51.956;5.876;2023-08-06T08:41:45;4.72;;;4.32;;
73113;SDS011;61301;51.956;5.876;2023-08-06T08:44:11;4.65;;;4.07;;
73113;SDS011;61301;51.956;5.876;2023-08-06T08:46:40;4.70;;;4.10;;
73113;SDS011;61301;51.956;5.876;2023-08-06T08:49:07;4.65;;;4.25;;
73113;SDS011;61301;51.956;5.876;2023-08-06T08:51:33;4.00;;;3.63;;
73113;SDS011;61301;51.956;5.876;2023-08-06T08:54:02;5.57;;;5.07;;
73113;SDS011;61301;51.956;5.876;2023-08-06T08:56:29;6.88;;;5.78;;
73113;SDS011;61301;51.956;5.876;2023-08-06T08:58:55;5.50;;;5.00;;
73113;SDS011;61301;51.956;5.876;2023-08-06T09:01:21;5.30;;;4.10;;
73113;SDS011;61301;51.956;5.876;2023-08-06T09:03:48;3.67;;;3.35;;
73113;SDS011;61301;51.956;5.876;2023-08-06T09:06:15;5.63;;;4.80;;
73113;SDS011;61301;51.956;5.876;2023-08-06T09:08:47;5.60;;;5.05;;
73113;SDS011;61301;51.956;5.876;2023-08-06T09:11:22;6.50;;;5.88;;
73113;SDS011;61301;51.956;5.876;2023-08-06T09:13:49;4.82;;;4.32;;
73113;SDS011;61301;51.956;5.876;2023-08-06T09:16:15;3.95;;;3.58;;
73113;SDS011;61301;51.956;5.876;2023-08-06T09:18:41;4.28;;;3.67;;
73113;SDS011;61301;51.956;5.876;2023-08-06T09:21:08;3.83;;;3.33;;
73113;SDS011;61301;51.956;5.876;2023-08-06T09:23:39;4.90;;;4.50;;
73113;SDS011;61301;51.956;5.876;2023-08-06T09:26:05;7.32;;;5.30;;
73113;SDS011;61301;51.956;5.876;2023-08-06T09:28:37;3.63;;;3.25;;
73113;SDS011;61301;51.956;5.876;2023-08-06T09:31:09;3.90;;;3.60;;
73113;SDS011;61301;51.956;5.876;2023-08-06T09:33:36;4.00;;;3.60;;
73113;SDS011;61301;51.956;5.876;2023-08-06T09:36:07;4.40;;;3.85;;
73113;SDS011;61301;51.956;5.876;2023-08-06T09:38:37;5.72;;;5.15;;
73113;SDS011;61301;51.956;5.876;2023-08-06T09:41:05;4.22;;;3.83;;
73113;SDS011;61301;51.956;5.876;2023-08-06T09:43:41;5.63;;;4.85;;
73113;SDS011;61301;51.956;5.876;2023-08-06T09:46:12;6.53;;;4.90;;
73113;SDS011;61301;51.956;5.876;2023-08-06T09:48:39;5.63;;;5.05;;
73113;SDS011;61301;51.956;5.876;2023-08-06T09:51:07;3.53;;;3.22;;
73113;SDS011;61301;51.956;5.876;2023-08-06T09:53:34;4.05;;;3.65;;
73113;SDS011;61301;51.956;5.876;2023-08-06T09:56:01;5.22;;;4.72;;
73113;SDS011;61301;51.956;5.876;2023-08-06T09:58:27;4.28;;;3.88;;
73113;SDS011;61301;51.956;5.876;2023-08-06T10:00:56;2.83;;;2.53;;
73113;SDS011;61301;51.956;5.876;2023-08-06T10:03:25;3.25;;;2.30;;
73113;SDS011;61301;51.956;5.876;2023-08-06T10:05:53;3.80;;;2.78;;
73113;SDS011;61301;51.956;5.876;2023-08-06T10:08:21;2.28;;;2.10;;
73113;SDS011;61301;51.956;5.876;2023-08-06T10:10:47;7.05;;;2.20;;
73113;SDS011;61301;51.956;5.876;2023-08-06T10:13:13;1.77;;;1.52;;
73113;SDS011;61301;51.956;5.876;2023-08-06T10:15:41;2.03;;;1.70;;
73113;SDS011;61301;51.956;5.876;2023-08-06T10:18:07;2.08;;;1.98;;
73113;SDS011;61301;51.956;5.876;2023-08-06T10:20:34;1.75;;;1.35;;
73113;SDS011;61301;51.956;5.876;2023-08-06T10:23:01;1.48;;;0.90;;
73113;SDS011;61301;51.956;5.876;2023-08-06T10:25:33;0.60;;;0.60;;
73113;SDS011;61301;51.956;5.876;2023-08-06T10:28:00;0.70;;;0.70;;
73113;SDS011;61301;51.956;5.876;2023-08-06T10:30:33;0.80;;;0.35;;
73113;SDS011;61301;51.956;5.876;2023-08-06T10:33:06;2.93;;;0.80;;
73113;SDS011;61301;51.956;5.876;2023-08-06T10:35:34;0.77;;;0.77;;
73113;SDS011;61301;51.956;5.876;2023-08-06T10:43:07;0.88;;;0.70;;
73113;SDS011;61301;51.956;5.876;2023-08-06T10:45:35;2.05;;;1.02;;
73113;SDS011;61301;51.956;5.876;2023-08-06T10:48:02;2.97;;;1.13;;
73113;SDS011;61301;51.956;5.876;2023-08-06T10:50:29;0.75;;;0.75;;
73113;SDS011;61301;51.956;5.876;2023-08-06T10:52:57;1.13;;;0.95;;
73113;SDS011;61301;51.956;5.876;2023-08-06T10:55:24;1.30;;;0.65;;
73113;SDS011;61301;51.956;5.876;2023-08-06T10:57:51;3.05;;;0.82;;
73113;SDS011;61301;51.956;5.876;2023-08-06T11:00:18;1.70;;;1.17;;
73113;SDS011;61301;51.956;5.876;2023-08-06T11:02:46;1.98;;;1.00;;
73113;SDS011;61301;51.956;5.876;2023-08-06T11:05:14;1.77;;;1.17;;
73113;SDS011;61301;51.956;5.876;2023-08-06T11:07:40;1.10;;;0.75;;
73113;SDS011;61301;51.956;5.876;2023-08-06T11:10:07;1.83;;;0.88;;
73113;SDS011;61301;51.956;5.876;2023-08-06T11:12:38;0.98;;;0.82;;
73113;SDS011;61301;51.956;5.876;2023-08-06T11:15:05;1.80;;;1.23;;
73113;SDS011;61301;51.956;5.876;2023-08-06T11:17:32;2.13;;;1.10;;
73113;SDS011;61301;51.956;5.876;2023-08-06T11:19:59;1.45;;;1.08;;
73113;SDS011;61301;51.956;5.876;2023-08-06T11:22:26;1.92;;;1.23;;
73113;SDS011;61301;51.956;5.876;2023-08-06T11:24:52;1.20;;;0.95;;
73113;SDS011;61301;51.956;5.876;2023-08-06T11:27:19;2.00;;;1.35;;
73113;SDS011;61301;51.956;5.876;2023-08-06T11:29:45;1.50;;;1.40;;
73113;SDS011;61301;51.956;5.876;2023-08-06T11:32:11;1.42;;;1.33;;
73113;SDS011;61301;51.956;5.876;2023-08-06T11:34:38;2.45;;;1.50;;
73113;SDS011;61301;51.956;5.876;2023-08-06T11:37:05;1.55;;;1.20;;
73113;SDS011;61301;51.956;5.876;2023-08-06T11:39:32;1.75;;;1.40;;
73113;SDS011;61301;51.956;5.876;2023-08-06T11:41:59;2.70;;;2.25;;
73113;SDS011;61301;51.956;5.876;2023-08-06T11:44:31;2.65;;;1.92;;
73113;SDS011;61301;51.956;5.876;2023-08-06T11:46:59;2.97;;;2.53;;
73113;SDS011;61301;51.956;5.876;2023-08-06T11:52:15;3.65;;;2.85;;
73113;SDS011;61301;51.956;5.876;2023-08-06T11:54:46;5.05;;;2.88;;
73113;SDS011;61301;51.956;5.876;2023-08-06T11:57:13;3.63;;;3.08;;
73113;SDS011;61301;51.956;5.876;2023-08-06T11:59:40;4.25;;;2.92;;
73113;SDS011;61301;51.956;5.876;2023-08-06T12:02:09;4.03;;;3.20;;
73113;SDS011;61301;51.956;5.876;2023-08-06T12:07:28;3.10;;;2.65;;
73113;SDS011;61301;51.956;5.876;2023-08-06T12:09:56;2.67;;;2.40;;
73113;SDS011;61301;51.956;5.876;2023-08-06T12:12:22;3.03;;;2.42;;
73113;SDS011;61301;51.956;5.876;2023-08-06T12:14:49;3.35;;;2.03;;
73113;SDS011;61301;51.956;5.876;2023-08-06T12:17:15;3.78;;;2.53;;
73113;SDS011;61301;51.956;5.876;2023-08-06T12:19:41;3.10;;;2.13;;
73113;SDS011;61301;51.956;5.876;2023-08-06T12:22:10;4.38;;;2.00;;
73113;SDS011;61301;51.956;5.876;2023-08-06T12:24:36;5.15;;;2.50;;
73113;SDS011;61301;51.956;5.876;2023-08-06T12:27:02;3.10;;;1.70;;
73113;SDS011;61301;51.956;5.876;2023-08-06T12:29:29;3.22;;;1.88;;
73113;SDS011;61301;51.956;5.876;2023-08-06T12:31:56;4.18;;;2.28;;
73113;SDS011;61301;51.956;5.876;2023-08-06T12:34:22;3.13;;;2.50;;
73113;SDS011;61301;51.956;5.876;2023-08-06T12:36:48;4.68;;;2.92;;
73113;SDS011;61301;51.956;5.876;2023-08-06T12:39:14;4.45;;;3.08;;
73113;SDS011;61301;51.956;5.876;2023-08-06T12:41:41;3.25;;;2.47;;
73113;SDS011;61301;51.956;5.876;2023-08-06T12:44:09;3.33;;;1.85;;
73113;SDS011;61301;51.956;5.876;2023-08-06T12:46:35;3.15;;;2.67;;
73113;SDS011;61301;51.956;5.876;2023-08-06T12:49:01;4.88;;;2.78;;
73113;SDS011;61301;51.956;5.876;2023-08-06T12:51:27;3.47;;;2.13;;
73113;SDS011;61301;51.956;5.876;2023-08-06T12:53:53;2.63;;;1.65;;
73113;SDS011;61301;51.956;5.876;2023-08-06T12:56:19;4.00;;;2.28;;
73113;SDS011;61301;51.956;5.876;2023-08-06T12:58:45;5.78;;;2.50;;
73113;SDS011;61301;51.956;5.876;2023-08-06T13:01:11;4.32;;;2.28;;
73113;SDS011;61301;51.956;5.876;2023-08-06T13:03:37;3.25;;;2.08;;
73113;SDS011;61301;51.956;5.876;2023-08-06T13:06:02;5.05;;;1.80;;
73113;SDS011;61301;51.956;5.876;2023-08-06T13:08:29;3.00;;;2.08;;
73113;SDS011;61301;51.956;5.876;2023-08-06T13:12:28;3.92;;;2.25;;
73113;SDS011;61301;51.956;5.876;2023-08-06T13:14:54;3.58;;;1.40;;
73113;SDS011;61301;51.956;5.876;2023-08-06T13:17:23;3.95;;;2.10;;
73113;SDS011;61301;51.956;5.876;2023-08-06T13:19:49;3.67;;;2.22;;
73113;SDS011;61301;51.956;5.876;2023-08-06T13:22:15;3.38;;;2.20;;
73113;SDS011;61301;51.956;5.876;2023-08-06T13:24:41;2.88;;;1.88;;
73113;SDS011;61301;51.956;5.876;2023-08-06T13:27:07;3.72;;;2.20;;
73113;SDS011;61301;51.956;5.876;2023-08-06T13:29:35;2.47;;;1.48;;
73113;SDS011;61301;51.956;5.876;2023-08-06T13:32:01;2.63;;;1.80;;
73113;SDS011;61301;51.956;5.876;2023-08-06T13:34:27;4.28;;;2.15;;
73113;SDS011;61301;51.956;5.876;2023-08-06T13:36:53;2.55;;;1.70;;
73113;SDS011;61301;51.956;5.876;2023-08-06T13:39:19;3.03;;;2.42;;
73113;SDS011;61301;51.956;5.876;2023-08-06T13:41:45;3.85;;;2.45;;
73113;SDS011;61301;51.956;5.876;2023-08-06T13:44:11;3.03;;;2.00;;
73113;SDS011;61301;51.956;5.876;2023-08-06T13:46:39;3.03;;;2.00;;
73113;SDS011;61301;51.956;5.876;2023-08-06T13:49:06;2.53;;;2.00;;
73113;SDS011;61301;51.956;5.876;2023-08-06T13:51:32;5.18;;;2.15;;
73113;SDS011;61301;51.956;5.876;2023-08-06T13:54:01;3.88;;;1.83;;
73113;SDS011;61301;51.956;5.876;2023-08-06T13:56:27;6.35;;;2.63;;
73113;SDS011;61301;51.956;5.876;2023-08-06T13:58:55;2.33;;;1.85;;
73113;SDS011;61301;51.956;5.876;2023-08-06T14:01:21;2.30;;;1.80;;
73113;SDS011;61301;51.956;5.876;2023-08-06T14:03:47;4.07;;;2.35;;
73113;SDS011;61301;51.956;5.876;2023-08-06T14:06:13;2.38;;;1.70;;
73113;SDS011;61301;51.956;5.876;2023-08-06T14:08:39;2.97;;;2.13;;
73113;SDS011;61301;51.956;5.876;2023-08-06T14:11:05;3.33;;;2.00;;
73113;SDS011;61301;51.956;5.876;2023-08-06T14:13:32;2.42;;;1.55;;
73113;SDS011;61301;51.956;5.876;2023-08-06T14:15:58;2.97;;;1.70;;
73113;SDS011;61301;51.956;5.876;2023-08-06T14:18:24;4.25;;;2.17;;
73113;SDS011;61301;51.956;5.876;2023-08-06T14:20:50;3.55;;;1.98;;
73113;SDS011;61301;51.956;5.876;2023-08-06T14:23:16;3.95;;;2.20;;
73113;SDS011;61301;51.956;5.876;2023-08-06T14:25:42;4.85;;;2.40;;
73113;SDS011;61301;51.956;5.876;2023-08-06T14:28:08;2.00;;;1.77;;
73113;SDS011;61301;51.956;5.876;2023-08-06T14:30:34;2.88;;;1.77;;
73113;SDS011;61301;51.956;5.876;2023-08-06T14:33:00;2.63;;;1.98;;
73113;SDS011;61301;51.956;5.876;2023-08-06T14:35:27;6.00;;;2.38;;
73113;SDS011;61301;51.956;5.876;2023-08-06T14:37:53;4.43;;;2.30;;
73113;SDS011;61301;51.956;5.876;2023-08-06T14:40:19;5.97;;;2.22;;
73113;SDS011;61301;51.956;5.876;2023-08-06T14:42:45;2.97;;;1.80;;
73113;SDS011;61301;51.956;5.876;2023-08-06T14:45:12;4.50;;;2.28;;
73113;SDS011;61301;51.956;5.876;2023-08-06T14:47:39;4.70;;;2.33;;
73113;SDS011;61301;51.956;5.876;2023-08-06T14:50:05;2.75;;;2.05;;
73113;SDS011;61301;51.956;5.876;2023-08-06T14:52:33;2.45;;;2.00;;
73113;SDS011;61301;51.956;5.876;2023-08-06T14:55:00;2.33;;;1.63;;
73113;SDS011;61301;51.956;5.876;2023-08-06T14:57:27;2.72;;;2.05;;
73113;SDS011;61301;51.956;5.876;2023-08-06T14:59:56;2.72;;;1.80;;
73113;SDS011;61301;51.956;5.876;2023-08-06T15:02:22;3.42;;;1.60;;
73113;SDS011;61301;51.956;5.876;2023-08-06T15:04:48;5.00;;;2.38;;